Time;durP1;ratioP1;P1;durP2;ratioP2;P2;SDS_P1;SDS_P2;PMS_P1;PMS_P2;Temp;Humidity;BMP_temperature;BMP_pressure;BME280_temperature;BME280_humidity;BME280_pressure;Samples;Min_cycle;Max_cycle;Signal;HPM_P1;HPM_P2
2023/09/24 00:01:05;;;;;;;10.63;7.65;;;;;;;;;;4830775;29;20113;-85
2023/09/24 00:06:50;;;;;;;10.50;7.82;;;;;;;;;;4829559;29;20106;-87
2023/09/24 00:09:19;;;;;;;13.80;8.50;;;;;;;;;;4830215;29;20370;-84
2023/09/24 00:11:47;;;;;;;11.35;7.78;;;;;;;;;;4830680;29;20373;-87
2023/09/24 00:14:13;;;;;;;11.05;7.97;;;;;;;;;;4832147;29;20381;-86
2023/09/24 00:16:40;;;;;;;11.98;8.20;;;;;;;;;;4830650;29;20023;-85
2023/09/24 00:19:06;;;;;;;10.95;7.75;;;;;;;;;;4829182;29;20422;-85
2023/09/24 00:21:32;;;;;;;11.75;7.55;;;;;;;;;;4828209;29;20381;-85
2023/09/24 00:23:59;;;;;;;10.27;7.38;;;;;;;;;;4829711;29;20449;-87
2023/09/24 00:26:26;;;;;;;10.07;7.50;;;;;;;;;;4830343;29;20422;-86
2023/09/24 00:28:52;;;;;;;11.32;7.25;;;;;;;;;;4829181;29;20453;-89
2023/09/24 00:31:18;;;;;;;11.32;7.30;;;;;;;;;;4831452;29;20030;-86
2023/09/24 00:33:45;;;;;;;10.48;7.32;;;;;;;;;;4831149;29;20440;-89
2023/09/24 00:36:13;;;;;;;9.88;7.45;;;;;;;;;;4831266;29;20360;-85
2023/09/24 00:38:39;;;;;;;12.00;7.68;;;;;;;;;;4830835;29;20455;-87
2023/09/24 00:41:05;;;;;;;13.85;8.52;;;435.70;2355.20;;;;;;4829679;29;20353;-89
2023/09/24 00:43:34;;;;;;;12.73;8.20;;;435.50;2355.20;;;;;;4832399;29;20373;-87
2023/09/24 00:46:06;;;;;;;11.15;7.70;;;435.50;2355.20;;;;;;4829409;29;20487;-88
2023/09/24 00:51:57;;;;;;;11.75;8.15;;;435.40;2355.20;;;;;;4831566;29;20041;-91
2023/09/24 00:54:25;;;;;;;11.90;8.13;;;435.40;2355.20;;;;;;4828379;29;20377;-88
2023/09/24 00:56:53;;;;;;;14.20;9.30;;;435.30;2355.20;;;;;;4860378;29;20410;-91
2023/09/24 00:59:20;;;;;;;12.43;8.60;;;435.30;2355.20;;;;;;4830001;29;20380;-90
2023/09/24 01:01:46;;;;;;;12.60;8.52;;;435.40;2355.20;;;;;;4832366;29;20055;-90
2023/09/24 01:04:13;;;;;;;12.75;8.77;;;435.30;2355.20;;;;;;4832020;29;20375;-92
2023/09/24 01:06:40;;;;;;;12.10;8.77;;;;;;;;;;4831270;29;20440;-92
2023/09/24 01:09:09;;;;;;;13.18;8.95;;;;;;;;;;4830468;29;20372;-91
2023/09/24 01:11:38;;;;;;;13.98;9.93;;;435.60;2355.20;;;;;;4832207;29;20373;-91
2023/09/24 01:14:05;;;;;;;15.43;12.13;;;435.40;2355.20;;;;;;4831957;29;20468;-90
2023/09/24 01:16:37;;;;;;;16.15;11.85;;;435.40;2355.20;;;;;;4829680;29;20050;-89
2023/09/24 01:19:05;;;;;;;13.25;10.02;;;435.40;2355.20;;;;;;4830288;29;20381;-90
2023/09/24 01:21:31;;;;;;;11.95;9.00;;;435.40;2355.20;;;;;;4830620;29;20338;-90
2023/09/24 01:24:00;;;;;;;11.93;8.98;;;435.40;2355.20;;;;;;4830859;29;20369;-87
2023/09/24 01:26:27;;;;;;;13.55;9.10;;;435.30;2355.20;;;;;;4830416;29;20488;-91
2023/09/24 01:28:54;;;;;;;15.43;10.25;;;435.30;2355.20;;;;;;4829786;29;20429;-89
2023/09/24 01:31:20;;;;;;;13.90;9.70;;;410.50;2355.20;;;;;;4830616;29;20374;-91
2023/09/24 01:37:09;;;;;;;12.70;9.68;;;435.20;2355.20;;;;;;4829615;29;20472;-91
2023/09/24 01:39:36;;;;;;;14.55;10.27;;;435.30;2355.20;;;;;;4829536;29;20059;-91
2023/09/24 01:42:03;;;;;;;15.15;10.90;;;435.20;2355.20;;;;;;4830374;29;20091;-90
2023/09/24 01:44:35;;;;;;;13.65;9.50;;;435.20;2355.20;;;;;;4829917;29;20410;-89
2023/09/24 01:47:03;;;;;;;12.77;9.57;;;435.20;2355.20;;;;;;4828023;29;20385;-89
2023/09/24 01:49:33;;;;;;;15.50;9.07;;;435.20;2355.20;;;;;;4831253;29;20448;-91
2023/09/24 01:52:03;;;;;;;11.98;9.00;;;435.20;2355.20;;;;;;4829753;29;20034;-90
2023/09/24 01:54:30;;;;;;;14.68;9.55;;;435.20;2355.20;;;;;;4829603;29;20354;-90
2023/09/24 01:56:57;;;;;;;15.52;9.48;;;435.30;2355.20;;;;;;4830965;29;20405;-89
2023/09/24 01:59:24;;;;;;;12.93;9.07;;;435.20;2355.20;;;;;;4830855;29;20365;-88
2023/09/24 02:01:53;;;;;;;14.32;9.57;;;435.20;2355.20;;;;;;4831154;29;20118;-86
2023/09/24 02:04:21;;;;;;;12.85;8.70;;;435.20;2355.20;;;;;;4830744;29;20346;-91
2023/09/24 02:06:48;;;;;;;14.18;8.93;;;435.20;2355.20;;;;;;4829616;29;20050;-85
2023/09/24 02:09:16;;;;;;;14.15;9.20;;;410.50;2355.20;;;;;;4828301;29;20069;-89
2023/09/24 02:11:43;;;;;;;14.25;9.35;;;410.50;2355.20;;;;;;4832203;29;20500;-89
2023/09/24 02:14:09;;;;;;;13.73;9.30;;;410.50;2355.20;;;;;;4832754;29;20461;-89
2023/09/24 02:16:35;;;;;;;16.25;10.10;;;435.20;2355.20;;;;;;4834196;29;20449;-88
2023/09/24 02:22:23;;;;;;;14.63;8.98;;;435.20;2355.20;;;;;;4832824;29;20038;-89
2023/09/24 02:24:49;;;;;;;15.38;9.70;;;435.20;2355.20;;;;;;4832852;29;20030;-88
2023/09/24 02:27:15;;;;;;;13.82;9.80;;;435.20;2355.20;;;;;;4830620;29;20384;-87
2023/09/24 02:29:42;;;;;;;14.70;10.02;;;435.20;2355.20;;;;;;4831585;29;20485;-85
2023/09/24 02:32:08;;;;;;;18.02;10.82;;;435.20;2355.20;;;;;;4831081;29;20444;-89
2023/09/24 02:34:34;;;;;;;16.10;10.63;;;435.20;2355.20;;;;;;4830529;29;20026;-90
2023/09/24 02:37:01;;;;;;;16.35;10.38;;;435.20;2355.20;;;;;;4832576;29;20430;-88
2023/09/24 02:39:27;;;;;;;16.92;10.50;;;435.20;2355.20;;;;;;4832126;29;20406;-88
2023/09/24 02:41:54;;;;;;;17.05;10.55;;;435.20;2355.20;;;;;;4830488;29;20350;-88
2023/09/24 02:44:22;;;;;;;16.83;11.23;;;410.50;2355.20;;;;;;4832106;29;20410;-91
2023/09/24 02:46:48;;;;;;;17.50;11.35;;;410.50;2355.20;;;;;;4831375;29;20338;-90
2023/09/24 02:52:39;;;;;;;17.42;10.95;;;410.50;2355.20;;;;;;4833119;29;20060;-87
2023/09/24 02:55:07;;;;;;;16.40;10.82;;;410.50;2355.20;;;;;;4832848;29;20428;-90
2023/09/24 02:57:33;;;;;;;17.35;10.85;;;410.40;2355.20;;;;;;4831542;29;20026;-90
2023/09/24 02:59:59;;;;;;;16.35;10.82;;;410.40;2355.20;;;;;;4830419;29;20093;-90
2023/09/24 03:02:28;;;;;;;17.15;11.68;;;410.50;2355.20;;;;;;4860248;29;20377;-89
2023/09/24 03:04:56;;;;;;;18.00;11.43;;;410.50;2355.20;;;;;;4832330;29;20030;-90
2023/09/24 03:07:22;;;;;;;20.02;12.27;;;410.50;2355.20;;;;;;4831193;29;20499;-90
2023/09/24 03:09:53;;;;;;;16.92;11.35;;;410.50;2355.20;;;;;;4832892;29;20515;-89
2023/09/24 03:12:20;;;;;;;17.98;11.30;;;435.20;2355.20;;;;;;4831278;29;20045;-89
2023/09/24 03:14:46;;;;;;;18.00;11.55;;;435.20;2355.20;;;;;;4832377;29;20415;-89
2023/09/24 03:23:37;;;;;;;17.85;11.05;;;435.20;2355.20;;;;;;4832546;29;20045;-91
2023/09/24 03:26:03;;;;;;;18.77;11.38;;;435.20;2355.20;;;;;;4832137;29;20369;-90
2023/09/24 03:28:29;;;;;;;19.60;11.52;;;435.30;2355.20;;;;;;4831930;29;20401;-89
2023/09/24 03:30:56;;;;;;;18.13;11.73;;;435.40;2355.20;;;;;;4832407;29;20045;-90
2023/09/24 03:33:22;;;;;;;17.83;11.93;;;435.40;2355.20;;;;;;4831107;29;20381;-87
2023/09/24 03:35:49;;;;;;;20.15;12.25;;;435.40;2355.20;;;;;;4831680;29;20462;-87
2023/09/24 03:38:15;;;;;;;18.88;12.25;;;435.40;2355.20;;;;;;4831548;29;20388;-89
2023/09/24 03:40:42;;;;;;;17.23;11.75;;;435.50;2355.20;;;;;;4831944;29;20417;-89
2023/09/24 03:43:09;;;;;;;19.40;12.05;;;435.50;2355.20;;;;;;4830704;29;20335;-88
2023/09/24 03:45:36;;;;;;;19.42;12.15;;;435.60;2355.20;;;;;;4832411;29;20418;-91
2023/09/24 03:48:03;;;;;;;17.40;11.55;;;435.60;2355.20;;;;;;4830438;29;20346;-90
2023/09/24 03:50:29;;;;;;;18.65;12.45;;;435.60;2355.20;;;;;;4830430;29;20441;-87
2023/09/24 03:52:57;;;;;;;20.42;11.35;;;435.60;2355.20;;;;;;4830656;29;20369;-88
2023/09/24 03:55:27;;;;;;;16.73;11.20;;;435.70;2355.20;;;;;;4830314;29;20108;-88
2023/09/24 03:57:54;;;;;;;21.00;11.93;;;435.70;2355.20;;;;;;4831827;29;20364;-91
2023/09/24 04:00:21;;;;;;;17.55;11.68;;;435.70;2355.20;;;;;;4830518;29;20051;-88
2023/09/24 04:02:49;;;;;;;17.80;11.90;;;435.70;2355.20;;;;;;4831868;29;20030;-89
2023/09/24 04:05:21;;;;;;;17.77;11.57;;;435.70;2355.20;;;;;;4831913;29;20026;-90
2023/09/24 04:07:50;;;;;;;18.50;11.85;;;435.70;2355.20;;;;;;4830434;29;20069;-90
2023/09/24 04:10:22;;;;;;;18.83;11.65;;;435.70;2355.20;;;;;;4830924;29;20046;-89
2023/09/24 04:12:51;;;;;;;17.25;11.77;;;435.70;2355.20;;;;;;4830923;29;20453;-89
2023/09/24 04:15:27;;;;;;;17.88;11.52;;;435.70;2355.20;;;;;;4830074;29;20480;-89
2023/09/24 04:17:59;;;;;;;20.30;12.25;;;435.80;2355.20;;;;;;4830463;29;20376;-88
2023/09/24 04:20:29;;;;;;;19.50;12.30;;;435.60;2355.20;;;;;;4827934;29;20464;-86
2023/09/24 04:22:56;;;;;;;20.98;12.45;;;435.60;2355.20;;;;;;4829052;29;20380;-88
2023/09/24 04:25:26;;;;;;;18.50;12.10;;;435.70;2355.20;;;;;;4829575;29;20410;-89
2023/09/24 04:27:52;;;;;;;18.00;12.23;;;435.70;2355.20;;;;;;4829765;29;20467;-88
2023/09/24 04:30:22;;;;;;;18.30;11.07;;;435.60;2355.20;;;;;;4830279;29;20026;-86
2023/09/24 04:32:54;;;;;;;19.40;13.40;;;435.50;2355.20;;;;;;4829893;29;20381;-86
2023/09/24 04:35:24;;;;;;;18.38;11.98;;;435.50;2355.20;;;;;;4827792;29;20493;-89
2023/09/24 04:37:51;;;;;;;18.10;11.98;;;435.50;2355.20;;;;;;4829410;29;20369;-89
2023/09/24 04:40:18;;;;;;;18.92;11.82;;;;;;;;;;4829661;29;20397;-86
2023/09/24 04:42:45;;;;;;;19.13;12.15;;;435.80;2355.20;;;;;;4829730;29;20368;-87
2023/09/24 04:45:13;;;;;;;20.17;12.38;;;435.50;2355.20;;;;;;4828870;29;20393;-86
2023/09/24 04:54:06;;;;;;;21.48;11.82;;;435.60;2355.20;;;;;;4774078;29;20208;-90
2023/09/24 04:56:32;;;;;;;16.67;11.50;;;435.60;2355.20;;;;;;4773579;30;20436;-87
2023/09/24 04:59:01;;;;;;;17.73;12.10;;;435.60;2355.20;;;;;;4772694;30;20034;-87
2023/09/24 05:01:27;;;;;;;16.58;11.00;;;435.70;2355.20;;;;;;4773534;30;20379;-88
2023/09/24 05:03:55;;;;;;;17.30;11.38;;;436.00;2355.20;;;;;;4758739;30;20028;-85
2023/09/24 05:06:21;;;;;;;20.15;11.60;;;435.80;2355.20;;;;;;4772704;30;20367;-87
2023/09/24 05:08:47;;;;;;;20.48;12.38;;;435.70;2355.20;;;;;;4773294;30;20382;-85
2023/09/24 05:11:14;;;;;;;17.77;12.07;;;435.70;2355.20;;;;;;4758275;30;20027;-88
2023/09/24 05:13:40;;;;;;;17.08;11.65;;;435.80;2355.20;;;;;;4759411;30;20023;-86
2023/09/24 05:16:08;;;;;;;18.08;12.00;;;435.80;2355.20;;;;;;4788263;30;20467;-86
2023/09/24 05:18:35;;;;;;;16.02;11.10;;;435.80;2355.20;;;;;;4773862;30;20047;-85
2023/09/24 05:21:03;;;;;;;16.13;11.48;;;435.80;2355.20;;;;;;4757835;30;20378;-88
2023/09/24 05:23:29;;;;;;;16.65;11.55;;;435.90;2355.20;;;;;;4773281;30;20084;-88
2023/09/24 05:25:56;;;;;;;18.15;11.77;;;;;;;;;;4758329;30;20383;-88
2023/09/24 05:28:22;;;;;;;17.70;11.68;;;436.10;2355.20;;;;;;4847604;29;20057;-88
2023/09/24 05:30:53;;;;;;;17.92;11.27;;;435.90;2355.20;;;;;;4830044;29;20369;-85
2023/09/24 05:33:19;;;;;;;18.05;11.48;;;436.10;2355.20;;;;;;4826866;29;20361;-89
2023/09/24 05:35:50;;;;;;;14.88;11.00;;;435.90;2355.20;;;;;;4827430;29;20030;-89
2023/09/24 05:38:18;;;;;;;16.35;11.07;;;435.80;2355.20;;;;;;4825912;29;20027;-88
2023/09/24 05:40:45;;;;;;;21.83;14.45;;;435.80;2355.20;;;;;;4827622;29;20056;-88
2023/09/24 05:43:11;;;;;;;18.33;12.15;;;435.80;2355.20;;;;;;4827365;29;20369;-84
2023/09/24 05:45:48;;;;;;;22.05;13.25;;;435.80;2355.20;;;;;;4828917;29;20388;-87
2023/09/24 05:48:15;;;;;;;17.98;11.70;;;435.80;2355.20;;;;;;4829784;29;20444;-86
2023/09/24 05:50:44;;;;;;;18.33;12.50;;;435.80;2355.20;;;;;;4829427;29;20438;-85
2023/09/24 05:53:11;;;;;;;18.92;11.82;;;435.80;2355.20;;;;;;4830880;29;20410;-87
2023/09/24 05:55:38;;;;;;;17.30;11.95;;;435.80;2355.20;;;;;;4830810;29;20402;-88
2023/09/24 05:58:05;;;;;;;18.42;12.13;;;435.80;2355.20;;;;;;4829170;29;20373;-89
2023/09/24 06:00:33;;;;;;;18.95;12.38;;;;;;;;;;4830902;29;20473;-87
2023/09/24 06:09:09;;;;;;;19.75;12.10;;;;;;;;;;4822722;29;20057;-87
2023/09/24 06:11:38;;;;;;;19.63;12.30;;;;;;;;;;4830397;29;20418;-87
2023/09/24 06:14:10;;;;;;;24.77;13.68;;;436.10;2355.20;;;;;;4830110;29;20376;-87
2023/09/24 06:16:37;;;;;;;20.70;13.18;;;435.90;2355.20;;;;;;4829538;29;20441;-88
2023/09/24 06:19:04;;;;;;;20.63;12.93;;;435.70;2355.20;;;;;;4829427;29;20369;-85
2023/09/24 06:21:31;;;;;;;20.58;13.05;;;435.80;2355.20;;;;;;4830331;29;20457;-87
2023/09/24 06:23:58;;;;;;;19.83;12.85;;;435.80;2355.20;;;;;;4830156;29;20407;-85
2023/09/24 06:26:24;;;;;;;19.70;13.07;;;435.80;2355.20;;;;;;4830015;29;20364;-85
2023/09/24 06:28:50;;;;;;;19.83;12.95;;;435.90;2355.20;;;;;;4829804;29;20372;-87
2023/09/24 06:31:17;;;;;;;21.23;13.43;;;436.00;2355.20;;;;;;4828508;29;20513;-86
2023/09/24 06:33:43;;;;;;;21.42;13.65;;;435.90;2355.20;;;;;;4829931;29;20513;-85
2023/09/24 06:36:09;;;;;;;20.50;12.95;;;435.90;2355.20;;;;;;4829770;29;20373;-83
2023/09/24 06:38:39;;;;;;;22.35;12.68;;;436.00;2355.20;;;;;;4830137;29;20026;-89
2023/09/24 06:41:06;;;;;;;20.42;12.27;;;436.10;2355.20;;;;;;4828720;29;20484;-86
2023/09/24 06:43:33;;;;;;;19.55;12.82;;;436.10;2355.20;;;;;;4829852;29;20152;-87
2023/09/24 06:46:04;;;;;;;19.10;12.70;;;;;;;;;;4829807;29;20451;-84
2023/09/24 06:48:32;;;;;;;21.08;12.73;;;;;;;;;;4828773;29;20030;-87
2023/09/24 06:51:06;;;;;;;20.35;12.10;;;;;;;;;;4829554;29;20098;-85
2023/09/24 06:53:32;;;;;;;18.75;12.98;;;;;;;;;;4829803;29;20372;-85
2023/09/24 06:55:59;;;;;;;19.77;12.48;;;;;;;;;;4829086;29;20030;-89
2023/09/24 06:58:28;;;;;;;17.90;12.43;;;;;;;;;;4828014;29;20430;-84
2023/09/24 07:00:54;;;;;;;20.70;12.60;;;;;;;;;;4830311;29;20405;-84
2023/09/24 07:03:20;;;;;;;20.15;13.80;;;;;;;;;;4829898;29;20413;-87
2023/09/24 07:05:47;;;;;;;20.67;13.85;;;;;;;;;;4829175;29;20431;-85
2023/09/24 07:08:15;;;;;;;21.98;14.27;;;;;;;;;;4828521;29;20065;-87
2023/09/24 07:10:42;;;;;;;25.83;14.73;;;;;;;;;;4829351;29;20042;-87
2023/09/24 07:13:08;;;;;;;23.27;14.27;;;;;;;;;;4828666;29;20373;-87
2023/09/24 07:15:35;;;;;;;25.45;15.20;;;;;;;;;;4830362;29;20055;-86
2023/09/24 07:18:02;;;;;;;23.92;15.32;;;;;;;;;;4831260;29;20464;-87
2023/09/24 07:23:47;;;;;;;22.65;15.38;;;;;;;;;;4831082;29;20173;-85
2023/09/24 07:26:14;;;;;;;25.02;16.15;;;;;;;;;;4828717;29;20476;-85
2023/09/24 07:28:41;;;;;;;25.05;15.73;;;;;;;;;;4828185;29;20535;-85
2023/09/24 07:31:19;;;;;;;24.60;16.25;;;;;;;;;;4828973;29;20365;-85
2023/09/24 07:33:46;;;;;;;25.45;16.13;;;;;;;;;;4828340;29;20373;-86
2023/09/24 07:36:13;;;;;;;25.52;16.55;;;;;;;;;;4829197;29;20415;-87
2023/09/24 07:38:40;;;;;;;27.00;16.35;;;;;;;;;;4828007;29;20461;-86
2023/09/24 07:41:07;;;;;;;26.98;16.48;;;;;;;;;;4829729;29;20421;-84
2023/09/24 07:43:37;;;;;;;28.65;16.42;;;;;;;;;;4830198;29;20369;-84
2023/09/24 07:46:04;;;;;;;25.98;16.58;;;;;;;;;;4828198;29;20027;-91
2023/09/24 07:48:31;;;;;;;26.95;16.80;;;;;;;;;;4827728;29;20037;-90
2023/09/24 07:54:16;;;;;;;25.20;15.80;;;;;;;;;;4830587;29;20045;-91
2023/09/24 07:56:43;;;;;;;25.17;16.15;;;461.60;2380.80;;;;;;4829450;29;20373;-92
2023/09/24 07:59:12;;;;;;;23.52;15.35;;;461.40;2380.80;;;;;;4829817;29;20524;-90
2023/09/24 08:01:38;;;;;;;22.23;15.10;;;461.40;2380.80;;;;;;4829794;29;20421;-84
2023/09/24 08:04:05;;;;;;;18.77;13.40;;;461.40;2380.80;;;;;;4827952;29;20358;-86
2023/09/24 08:06:31;;;;;;;20.85;14.32;;;461.30;2380.80;;;;;;4828164;29;20449;-88
2023/09/24 08:08:59;;;;;;;24.20;16.13;;;461.40;2380.80;;;;;;4826707;29;20465;-84
2023/09/24 08:11:25;;;;;;;19.98;13.82;;;461.30;2380.80;;;;;;4829102;29;20471;-84
2023/09/24 08:13:52;;;;;;;23.27;15.73;;;461.30;2380.80;;;;;;4829301;29;20385;-86
2023/09/24 08:16:18;;;;;;;24.55;16.38;;;461.30;2380.80;;;;;;4828897;29;20410;-86
2023/09/24 08:18:48;;;;;;;26.13;16.40;;;461.20;2380.80;;;;;;4856974;29;20414;-88
2023/09/24 08:24:51;;;;;;;19.30;14.75;;;461.10;2380.80;;;;;;4828271;29;20045;-86
2023/09/24 08:27:17;;;;;;;21.05;14.25;;;461.10;2380.80;;;;;;4826727;29;20045;-85
2023/09/24 08:29:43;;;;;;;24.33;15.35;;;461.10;2380.80;;;;;;4829150;29;20353;-84
2023/09/24 08:32:10;;;;;;;25.77;16.33;;;461.10;2380.80;;;;;;4828538;29;20485;-91
2023/09/24 08:34:36;;;;;;;27.33;16.77;;;460.90;2380.80;;;;;;4827696;29;20373;-88
2023/09/24 08:37:03;;;;;;;29.02;17.55;;;;;;;;;;4828639;29;20365;-90
2023/09/24 08:39:29;;;;;;;31.50;18.33;;;;;;;;;;4828793;29;20394;-91
2023/09/24 08:41:56;;;;;;;33.40;19.33;;;460.80;2380.80;;;;;;4826847;29;20038;-90
2023/09/24 08:44:28;;;;;;;33.65;19.20;;;436.00;2355.20;;;;;;4812181;29;20469;-91
2023/09/24 08:46:55;;;;;;;37.80;22.90;;;435.90;2355.20;;;;;;4829300;29;20364;-92
2023/09/24 08:49:21;;;;;;;35.78;19.75;;;435.80;2355.20;;;;;;4828762;29;20053;-92
2023/09/24 08:51:50;;;;;;;33.80;19.58;;;435.80;2355.20;;;;;;4829621;29;20377;-90
2023/09/24 08:54:18;;;;;;;35.67;19.63;;;435.80;2355.20;;;;;;4812636;29;20486;-89
2023/09/24 08:56:44;;;;;;;31.60;18.25;;;435.80;2355.20;;;;;;4830440;29;20022;-91
2023/09/24 08:59:10;;;;;;;38.38;22.88;;;435.80;2355.20;;;;;;4831715;29;20422;-90
2023/09/24 09:01:39;;;;;;;30.92;17.30;;;435.80;2355.20;;;;;;4832155;29;20482;-90
2023/09/24 09:04:07;;;;;;;29.60;17.90;;;436.00;2355.20;;;;;;4829504;29;20026;-90
2023/09/24 09:06:36;;;;;;;27.63;16.52;;;436.10;2355.20;;;;;;4830070;29;20409;-85
2023/09/24 09:09:03;;;;;;;26.38;16.15;;;436.10;2355.20;;;;;;4830485;29;20105;-89
2023/09/24 09:11:40;;;;;;;26.23;15.75;;;436.10;2355.20;;;;;;4829766;29;20034;-90
2023/09/24 09:14:08;;;;;;;27.17;15.30;;;436.10;2355.20;;;;;;4829169;29;20525;-86
2023/09/24 09:16:55;;;;;;;28.17;16.27;;;436.00;2355.20;;;;;;4831675;29;20026;-89
2023/09/24 09:19:23;;;;;;;27.77;16.73;;;436.00;2355.20;;;;;;4829048;29;20031;-91
2023/09/24 09:21:49;;;;;;;29.33;16.92;;;436.10;2355.20;;;;;;4828919;29;20396;-88
2023/09/24 09:24:28;;;;;;;25.83;15.68;;;460.80;2380.80;;;;;;4828621;29;20381;-91
2023/09/24 09:26:58;;;;;;;24.55;15.20;;;;;;;;;;4829259;29;20409;-89
2023/09/24 09:29:26;;;;;;;20.60;13.20;;;;;;;;;;4828807;29;20514;-90
2023/09/24 09:31:54;;;;;;;22.13;13.57;;;;;;;;;;4827764;29;20373;-91
2023/09/24 09:34:21;;;;;;;22.63;13.43;;;;;;;;;;4828718;29;20379;-88
2023/09/24 09:36:47;;;;;;;21.20;13.07;;;;;;;;;;4828529;29;20421;-89
2023/09/24 09:39:13;;;;;;;22.50;13.18;;;;;;;;;;4827369;29;20026;-90
2023/09/24 09:41:43;;;;;;;19.67;12.00;;;;;;;;;;4827836;29;20342;-88
2023/09/24 09:44:11;;;;;;;21.02;12.68;;;;;;;;;;4828059;29;20444;-89
2023/09/24 09:46:42;;;;;;;17.67;11.82;;;;;;;;;;4829354;29;20019;-89
2023/09/24 09:49:08;;;;;;;19.13;11.38;;;;;;;;;;4827264;29;22282;-89
2023/09/24 09:54:39;;;;;;;13.40;10.13;;;;;;;;;;4829218;29;20041;-87
2023/09/24 09:57:06;;;;;;;16.40;10.27;;;;;;;;;;4827871;29;20050;-84
2023/09/24 09:59:35;;;;;;;13.60;9.77;;;461.60;2380.80;;;;;;4829776;29;20536;-83
2023/09/24 10:02:03;;;;;;;12.15;8.68;;;461.50;2380.80;;;;;;4830550;29;20030;-85
2023/09/24 10:04:30;;;;;;;13.00;8.57;;;461.60;2380.80;;;;;;4827442;29;20496;-86
2023/09/24 10:06:57;;;;;;;13.85;9.65;;;461.60;2380.80;;;;;;4829036;29;20406;-87
2023/09/24 10:09:31;;;;;;;11.30;8.75;;;461.60;2380.80;;;;;;4829537;29;20046;-86
2023/09/24 10:12:00;;;;;;;12.90;9.20;;;461.60;2380.80;;;;;;4830694;29;20479;-90
2023/09/24 10:14:35;;;;;;;13.38;9.05;;;461.40;2380.80;;;;;;4829216;29;20383;-90
2023/09/24 10:17:28;;;;;;;12.07;7.65;;;461.50;2380.80;;;;;;4828876;29;20026;-89
2023/09/24 10:19:56;;;;;;;10.70;8.30;;;461.50;2380.80;;;;;;4825755;29;20357;-89
2023/09/24 10:22:29;;;;;;;11.70;8.57;;;461.50;2380.80;;;;;;4826726;29;20420;-90
2023/09/24 10:24:56;;;;;;;12.48;9.35;;;461.60;2380.80;;;;;;4826130;29;20395;-91
2023/09/24 10:27:31;;;;;;;15.20;9.98;;;461.70;2380.80;;;;;;4826274;29;20386;-85
2023/09/24 10:29:57;;;;;;;14.20;9.98;;;461.60;2380.80;;;;;;4826169;29;20499;-91
2023/09/24 10:32:25;;;;;;;12.77;9.07;;;461.60;2380.80;;;;;;4829442;29;20407;-92
2023/09/24 10:34:51;;;;;;;15.10;9.63;;;486.60;2380.80;;;;;;4829784;29;20401;-91
2023/09/24 10:37:24;;;;;;;14.32;10.57;;;486.40;2380.80;;;;;;4830910;29;20415;-87
2023/09/24 10:40:09;;;;;;;12.88;9.45;;;486.40;2380.80;;;;;;4830841;29;20366;-86
2023/09/24 10:42:38;;;;;;;13.38;9.23;;;486.60;2380.80;;;;;;4828732;29;20457;-92
2023/09/24 10:45:07;;;;;;;12.38;9.32;;;486.60;2380.80;;;;;;4829415;29;20347;-90
2023/09/24 10:47:40;;;;;;;12.38;9.05;;;486.70;2380.80;;;;;;4830402;29;20346;-91
2023/09/24 10:50:15;;;;;;;12.38;8.90;;;486.80;2380.80;;;;;;4830275;29;20485;-90
2023/09/24 10:52:59;;;;;;;13.40;9.00;;;487.00;2380.80;;;;;;4829679;29;20398;-92
2023/09/24 10:57:56;;;;;;;11.90;8.70;;;487.00;2380.80;;;;;;4829918;29;20542;-93
2023/09/24 11:00:30;;;;;;;13.50;9.30;;;487.30;2380.80;;;;;;4830804;29;20365;-87
2023/09/24 11:02:58;;;;;;;12.23;9.52;;;487.20;2380.80;;;;;;4830199;29;20365;-90
2023/09/24 11:05:25;;;;;;;11.75;8.60;;;;;;;;;;4828881;29;20466;-88
2023/09/24 11:07:53;;;;;;;11.98;8.52;;;512.40;2380.80;;;;;;4829797;29;20339;-90
2023/09/24 11:10:29;;;;;;;10.68;8.15;;;512.40;2380.80;;;;;;4828872;29;20470;-91
2023/09/24 11:13:00;;;;;;;10.98;7.93;;;512.30;2380.80;;;;;;4830094;29;20407;-92
2023/09/24 11:15:31;;;;;;;10.68;7.32;;;512.10;2380.80;;;;;;4829960;29;20026;-87
2023/09/24 11:17:58;;;;;;;23.48;15.70;;;512.20;2380.80;;;;;;4829271;29;20528;-92
2023/09/24 11:20:28;;;;;;;55.95;38.60;;;512.40;2380.80;;;;;;4827067;29;20038;-88
2023/09/24 11:22:59;;;;;;;20.42;14.90;;;512.10;2380.80;;;;;;4830131;29;20029;-92
2023/09/24 11:25:26;;;;;;;12.43;8.90;;;512.20;2380.80;;;;;;4829255;29;20117;-89
2023/09/24 11:27:58;;;;;;;9.32;7.28;;;512.40;2380.80;;;;;;4829008;29;20481;-87
2023/09/24 11:30:39;;;;;;;9.40;6.97;;;512.40;2380.80;;;;;;4829210;29;20422;-83
2023/09/24 11:33:16;;;;;;;9.75;7.68;;;512.20;2380.80;;;;;;4828823;29;20385;-91
2023/09/24 11:35:44;;;;;;;8.85;6.40;;;512.00;2380.80;;;;;;4830004;29;20487;-89
2023/09/24 11:38:11;;;;;;;11.68;8.65;;;512.10;2380.80;;;;;;4831132;29;20028;-88
2023/09/24 11:40:41;;;;;;;10.40;7.43;;;512.00;2380.80;;;;;;4828788;29;20462;-90
2023/09/24 11:43:11;;;;;;;11.40;8.30;;;487.30;2380.80;;;;;;4832193;29;20018;-90
2023/09/24 11:45:48;;;;;;;7.50;5.35;;;512.00;2380.80;;;;;;4834619;29;20417;-89
2023/09/24 11:48:18;;;;;;;7.22;5.28;;;487.30;2380.80;;;;;;4863307;29;20026;-83
2023/09/24 11:50:53;;;;;;;7.75;5.75;;;487.00;2380.80;;;;;;4829291;29;20417;-89
2023/09/24 11:53:25;;;;;;;7.82;5.78;;;486.90;2380.80;;;;;;4828805;29;20457;-91
2023/09/24 11:55:55;;;;;;;10.48;6.50;;;486.90;2380.80;;;;;;4830242;29;20485;-86
2023/09/24 11:58:25;;;;;;;11.65;6.30;;;487.10;2380.80;;;;;;4828240;29;20483;-87
2023/09/24 12:00:54;;;;;;;8.63;5.93;;;487.00;2380.80;;;;;;4828973;29;20369;-91
2023/09/24 12:03:23;;;;;;;10.13;7.10;;;486.90;2380.80;;;;;;4827782;29;20442;-92
2023/09/24 12:05:51;;;;;;;9.95;6.60;;;487.00;2380.80;;;;;;4828730;29;20474;-91
2023/09/24 12:08:17;;;;;;;12.35;8.38;;;487.00;2380.80;;;;;;4828157;29;20384;-88
2023/09/24 12:10:47;;;;;;;26.20;16.20;;;487.10;2380.80;;;;;;4828511;29;20383;-86
2023/09/24 12:13:16;;;;;;;9.13;6.70;;;487.30;2380.80;;;;;;4828556;29;20385;-89
2023/09/24 12:15:46;;;;;;;7.47;5.40;;;487.30;2380.80;;;;;;4829141;29;20030;-94
2023/09/24 12:18:13;;;;;;;9.40;5.97;;;487.30;2380.80;;;;;;4827835;29;20384;-91
2023/09/24 12:20:42;;;;;;;7.93;5.47;;;487.30;2380.80;;;;;;4829409;29;20361;-90
2023/09/24 12:23:09;;;;;;;8.63;5.68;;;487.30;2380.80;;;;;;4827103;29;20350;-90
2023/09/24 12:25:37;;;;;;;8.60;5.65;;;487.00;2201.60;;;;;;4830085;29;20410;-88
2023/09/24 12:28:07;;;;;;;7.32;5.32;;;486.90;2150.40;;;;;;4828906;29;20377;-89
2023/09/24 12:30:34;;;;;;;9.70;6.07;;;486.70;2073.60;;;;;;4828632;29;20358;-93
2023/09/24 12:33:01;;;;;;;7.20;5.25;;;486.70;2380.80;;;;;;4827247;29;20046;-88
2023/09/24 12:35:28;;;;;;;9.07;5.07;;;486.70;1996.80;;;;;;4829095;29;20346;-90
2023/09/24 12:37:54;;;;;;;7.53;5.20;;;486.90;2380.80;;;;;;4828788;29;20346;-90
2023/09/24 12:40:22;;;;;;;8.10;5.10;;;487.30;2380.80;;;;;;4829278;29;20354;-89
2023/09/24 12:42:48;;;;;;;14.27;8.82;;;512.10;2380.80;;;;;;4829485;29;20038;-92
2023/09/24 12:45:18;;;;;;;8.65;5.75;;;512.10;2380.80;;;;;;4829578;29;20368;-88
2023/09/24 12:47:45;;;;;;;7.03;4.40;;;512.10;2380.80;;;;;;4828665;29;20354;-91
2023/09/24 12:50:13;;;;;;;7.07;5.00;;;512.00;2380.80;;;;;;4827785;29;20442;-91
2023/09/24 12:55:45;;;;;;;6.85;4.00;;;538.40;2406.40;;;;;;4832475;29;20041;-89
2023/09/24 12:58:12;;;;;;;5.05;3.60;;;538.00;2406.40;;;;;;4834644;29;20057;-84
2023/09/24 13:00:39;;;;;;;5.55;3.55;;;538.40;2406.40;;;;;;4830403;29;20041;-84
2023/09/24 13:03:10;;;;;;;4.78;3.50;;;;;;;;;;4831138;29;20445;-86
2023/09/24 13:11:58;;;;;;;5.93;3.80;;;538.30;2406.40;;;;;;4826394;29;20065;-86
2023/09/24 13:14:26;;;;;;;5.07;3.75;;;538.10;2406.40;;;;;;4833005;29;20069;-86
2023/09/24 13:16:53;;;;;;;4.40;3.30;;;537.70;2406.40;;;;;;4830720;29;20421;-85
2023/09/24 13:19:20;;;;;;;4.30;2.30;;;538.10;2406.40;;;;;;4831017;29;20068;-87
2023/09/24 13:21:46;;;;;;;4.15;2.83;;;538.10;2406.40;;;;;;4831403;29;20057;-87
2023/09/24 13:24:16;;;;;;;5.95;4.22;;;563.30;2432.00;;;;;;4831105;29;20035;-85
2023/09/24 13:26:43;;;;;;;4.93;3.50;;;563.20;2432.00;;;;;;4829981;29;20361;-88
2023/09/24 13:29:16;;;;;;;5.05;2.35;;;538.40;2406.40;;;;;;4829988;29;20057;-88
2023/09/24 13:31:44;;;;;;;3.50;2.28;;;538.20;2406.40;;;;;;4831192;29;20084;-89
2023/09/24 13:34:11;;;;;;;3.42;2.30;;;537.60;2406.40;;;;;;4835366;29;20532;-91
2023/09/24 13:36:39;;;;;;;3.10;2.10;;;;;;;;;;4837296;29;20019;-88